sensor_id;sensor_type;location;lat;lon;timestamp;P1;durP1;ratioP1;P2;durP2;ratioP2
12958;SDS011;6544;51.666;6.634;2023-07-28T00:02:00;3.33;;;3.03;;
12958;SDS011;6544;51.666;6.634;2023-07-28T00:04:29;3.15;;;2.90;;
12958;SDS011;6544;51.666;6.634;2023-07-28T00:06:56;3.78;;;2.60;;
12958;SDS011;6544;51.666;6.634;2023-07-28T00:09:22;3.15;;;2.88;;
12958;SDS011;6544;51.666;6.634;2023-07-28T00:11:49;3.03;;;2.72;;
12958;SDS011;6544;51.666;6.634;2023-07-28T00:14:16;4.25;;;2.80;;
12958;SDS011;6544;51.666;6.634;2023-07-28T00:16:43;2.80;;;2.58;;
12958;SDS011;6544;51.666;6.634;2023-07-28T00:19:10;3.10;;;2.70;;
12958;SDS011;6544;51.666;6.634;2023-07-28T00:21:38;4.00;;;2.65;;
12958;SDS011;6544;51.666;6.634;2023-07-28T00:24:05;3.70;;;3.03;;
12958;SDS011;6544;51.666;6.634;2023-07-28T00:26:32;3.80;;;3.00;;
12958;SDS011;6544;51.666;6.634;2023-07-28T00:28:59;4.55;;;2.88;;
12958;SDS011;6544;51.666;6.634;2023-07-28T00:31:26;2.70;;;2.50;;
12958;SDS011;6544;51.666;6.634;2023-07-28T00:33:53;2.85;;;2.65;;
12958;SDS011;6544;51.666;6.634;2023-07-28T00:36:20;2.72;;;2.53;;
12958;SDS011;6544;51.666;6.634;2023-07-28T00:38:48;4.03;;;2.80;;
12958;SDS011;6544;51.666;6.634;2023-07-28T00:41:15;3.70;;;2.50;;
12958;SDS011;6544;51.666;6.634;2023-07-28T00:43:42;3.30;;;2.45;;
12958;SDS011;6544;51.666;6.634;2023-07-28T00:46:09;3.67;;;2.55;;
12958;SDS011;6544;51.666;6.634;2023-07-28T00:48:36;2.83;;;2.40;;
12958;SDS011;6544;51.666;6.634;2023-07-28T00:51:04;2.92;;;2.60;;
12958;SDS011;6544;51.666;6.634;2023-07-28T00:53:32;2.65;;;2.45;;
12958;SDS011;6544;51.666;6.634;2023-07-28T00:56:00;2.88;;;2.40;;
12958;SDS011;6544;51.666;6.634;2023-07-28T00:58:28;3.95;;;2.40;;
12958;SDS011;6544;51.666;6.634;2023-07-28T01:00:55;4.47;;;2.72;;
12958;SDS011;6544;51.666;6.634;2023-07-28T01:03:22;3.65;;;2.40;;
12958;SDS011;6544;51.666;6.634;2023-07-28T01:05:52;3.08;;;2.60;;
12958;SDS011;6544;51.666;6.634;2023-07-28T01:08:30;2.60;;;2.40;;
12958;SDS011;6544;51.666;6.634;2023-07-28T01:11:03;2.92;;;2.67;;
12958;SDS011;6544;51.666;6.634;2023-07-28T01:13:30;3.17;;;2.70;;
12958;SDS011;6544;51.666;6.634;2023-07-28T01:15:57;2.53;;;2.33;;
12958;SDS011;6544;51.666;6.634;2023-07-28T01:18:26;2.55;;;2.35;;
12958;SDS011;6544;51.666;6.634;2023-07-28T01:20:53;3.67;;;2.70;;
12958;SDS011;6544;51.666;6.634;2023-07-28T01:23:26;2.50;;;2.30;;
12958;SDS011;6544;51.666;6.634;2023-07-28T01:26:05;5.57;;;2.80;;
12958;SDS011;6544;51.666;6.634;2023-07-28T01:28:37;2.83;;;2.63;;
12958;SDS011;6544;51.666;6.634;2023-07-28T01:31:06;4.40;;;2.70;;
12958;SDS011;6544;51.666;6.634;2023-07-28T01:33:34;2.85;;;2.63;;
12958;SDS011;6544;51.666;6.634;2023-07-28T01:36:01;3.30;;;3.00;;
12958;SDS011;6544;51.666;6.634;2023-07-28T01:38:28;3.78;;;3.10;;
12958;SDS011;6544;51.666;6.634;2023-07-28T01:40:56;3.58;;;2.70;;
12958;SDS011;6544;51.666;6.634;2023-07-28T01:43:22;3.28;;;2.95;;
12958;SDS011;6544;51.666;6.634;2023-07-28T01:45:51;3.00;;;2.70;;
12958;SDS011;6544;51.666;6.634;2023-07-28T01:48:17;3.67;;;2.90;;
12958;SDS011;6544;51.666;6.634;2023-07-28T01:50:44;3.03;;;2.80;;
12958;SDS011;6544;51.666;6.634;2023-07-28T01:53:11;4.03;;;3.20;;
12958;SDS011;6544;51.666;6.634;2023-07-28T01:55:38;5.13;;;3.20;;
12958;SDS011;6544;51.666;6.634;2023-07-28T01:58:05;3.33;;;3.00;;
12958;SDS011;6544;51.666;6.634;2023-07-28T02:00:32;3.72;;;3.40;;
12958;SDS011;6544;51.666;6.634;2023-07-28T02:03:00;5.00;;;3.53;;
12958;SDS011;6544;51.666;6.634;2023-07-28T02:05:28;3.92;;;3.63;;
12958;SDS011;6544;51.666;6.634;2023-07-28T02:07:55;4.07;;;3.30;;
12958;SDS011;6544;51.666;6.634;2023-07-28T02:10:22;4.05;;;3.60;;
12958;SDS011;6544;51.666;6.634;2023-07-28T02:12:49;5.10;;;3.53;;
12958;SDS011;6544;51.666;6.634;2023-07-28T02:15:16;3.50;;;3.20;;
12958;SDS011;6544;51.666;6.634;2023-07-28T02:17:44;4.20;;;3.70;;
12958;SDS011;6544;51.666;6.634;2023-07-28T02:20:12;4.32;;;3.92;;
12958;SDS011;6544;51.666;6.634;2023-07-28T02:22:40;4.35;;;3.92;;
12958;SDS011;6544;51.666;6.634;2023-07-28T02:25:07;5.88;;;4.13;;
12958;SDS011;6544;51.666;6.634;2023-07-28T02:27:35;6.50;;;4.22;;
12958;SDS011;6544;51.666;6.634;2023-07-28T02:30:02;5.57;;;4.47;;
12958;SDS011;6544;51.666;6.634;2023-07-28T02:32:30;5.82;;;4.38;;
12958;SDS011;6544;51.666;6.634;2023-07-28T02:34:57;6.22;;;4.30;;
12958;SDS011;6544;51.666;6.634;2023-07-28T02:37:25;6.20;;;4.55;;
12958;SDS011;6544;51.666;6.634;2023-07-28T02:39:52;5.10;;;4.60;;
12958;SDS011;6544;51.666;6.634;2023-07-28T02:42:19;5.10;;;4.60;;
12958;SDS011;6544;51.666;6.634;2023-07-28T02:44:46;5.50;;;4.70;;
12958;SDS011;6544;51.666;6.634;2023-07-28T02:47:13;4.93;;;4.43;;
12958;SDS011;6544;51.666;6.634;2023-07-28T02:49:40;6.50;;;5.30;;
12958;SDS011;6544;51.666;6.634;2023-07-28T02:52:08;5.88;;;4.70;;
12958;SDS011;6544;51.666;6.634;2023-07-28T02:54:36;4.82;;;4.40;;
12958;SDS011;6544;51.666;6.634;2023-07-28T02:57:03;5.13;;;4.50;;
12958;SDS011;6544;51.666;6.634;2023-07-28T02:59:31;5.50;;;4.68;;
12958;SDS011;6544;51.666;6.634;2023-07-28T03:01:58;4.95;;;4.45;;
12958;SDS011;6544;51.666;6.634;2023-07-28T03:04:25;5.10;;;4.45;;
12958;SDS011;6544;51.666;6.634;2023-07-28T03:06:51;4.75;;;4.35;;
12958;SDS011;6544;51.666;6.634;2023-07-28T03:09:18;7.20;;;4.75;;
12958;SDS011;6544;51.666;6.634;2023-07-28T03:11:46;5.03;;;4.53;;
12958;SDS011;6544;51.666;6.634;2023-07-28T03:14:13;5.55;;;4.80;;
12958;SDS011;6544;51.666;6.634;2023-07-28T03:16:41;6.20;;;4.82;;
12958;SDS011;6544;51.666;6.634;2023-07-28T03:19:08;5.75;;;4.90;;
12958;SDS011;6544;51.666;6.634;2023-07-28T03:21:35;5.68;;;4.80;;
12958;SDS011;6544;51.666;6.634;2023-07-28T03:24:02;5.22;;;4.72;;
12958;SDS011;6544;51.666;6.634;2023-07-28T03:26:29;5.18;;;4.68;;
12958;SDS011;6544;51.666;6.634;2023-07-28T03:28:57;5.38;;;4.50;;
12958;SDS011;6544;51.666;6.634;2023-07-28T03:31:24;5.45;;;4.22;;
12958;SDS011;6544;51.666;6.634;2023-07-28T03:33:51;4.78;;;4.28;;
12958;SDS011;6544;51.666;6.634;2023-07-28T03:36:18;6.05;;;4.55;;
12958;SDS011;6544;51.666;6.634;2023-07-28T03:38:45;5.07;;;4.50;;
12958;SDS011;6544;51.666;6.634;2023-07-28T03:41:12;8.98;;;4.93;;
12958;SDS011;6544;51.666;6.634;2023-07-28T03:43:39;5.45;;;4.28;;
12958;SDS011;6544;51.666;6.634;2023-07-28T03:46:08;5.18;;;4.68;;
12958;SDS011;6544;51.666;6.634;2023-07-28T03:48:35;6.53;;;4.72;;
12958;SDS011;6544;51.666;6.634;2023-07-28T03:51:02;6.35;;;5.18;;
12958;SDS011;6544;51.666;6.634;2023-07-28T03:53:29;5.45;;;4.70;;
12958;SDS011;6544;51.666;6.634;2023-07-28T03:55:56;5.90;;;5.00;;
12958;SDS011;6544;51.666;6.634;2023-07-28T03:58:23;5.72;;;5.10;;
12958;SDS011;6544;51.666;6.634;2023-07-28T04:00:51;5.88;;;4.90;;
12958;SDS011;6544;51.666;6.634;2023-07-28T04:03:19;5.70;;;4.90;;
12958;SDS011;6544;51.666;6.634;2023-07-28T04:05:46;6.03;;;5.35;;
12958;SDS011;6544;51.666;6.634;2023-07-28T04:08:13;7.20;;;5.07;;
12958;SDS011;6544;51.666;6.634;2023-07-28T04:10:40;5.53;;;4.47;;
12958;SDS011;6544;51.666;6.634;2023-07-28T04:13:07;8.70;;;5.25;;
12958;SDS011;6544;51.666;6.634;2023-07-28T04:15:34;6.13;;;5.32;;
12958;SDS011;6544;51.666;6.634;2023-07-28T04:18:01;6.75;;;5.10;;
12958;SDS011;6544;51.666;6.634;2023-07-28T04:20:29;6.63;;;5.13;;
12958;SDS011;6544;51.666;6.634;2023-07-28T04:22:56;5.68;;;4.97;;
12958;SDS011;6544;51.666;6.634;2023-07-28T04:25:23;5.43;;;4.93;;
12958;SDS011;6544;51.666;6.634;2023-07-28T04:27:50;5.65;;;5.05;;
12958;SDS011;6544;51.666;6.634;2023-07-28T04:30:17;5.70;;;5.10;;
12958;SDS011;6544;51.666;6.634;2023-07-28T04:32:44;6.03;;;5.43;;
12958;SDS011;6544;51.666;6.634;2023-07-28T04:35:11;7.30;;;5.82;;
12958;SDS011;6544;51.666;6.634;2023-07-28T04:37:39;6.85;;;5.55;;
12958;SDS011;6544;51.666;6.634;2023-07-28T04:40:07;7.50;;;5.72;;
12958;SDS011;6544;51.666;6.634;2023-07-28T04:42:34;9.65;;;5.72;;
12958;SDS011;6544;51.666;6.634;2023-07-28T04:45:02;5.97;;;5.38;;
12958;SDS011;6544;51.666;6.634;2023-07-28T04:47:30;7.07;;;5.85;;
12958;SDS011;6544;51.666;6.634;2023-07-28T04:49:56;6.30;;;5.70;;
12958;SDS011;6544;51.666;6.634;2023-07-28T04:52:23;7.90;;;5.80;;
12958;SDS011;6544;51.666;6.634;2023-07-28T04:54:52;7.72;;;6.00;;
12958;SDS011;6544;51.666;6.634;2023-07-28T04:57:19;6.70;;;6.00;;
12958;SDS011;6544;51.666;6.634;2023-07-28T04:59:46;7.43;;;6.43;;
12958;SDS011;6544;51.666;6.634;2023-07-28T05:02:13;10.15;;;5.90;;
12958;SDS011;6544;51.666;6.634;2023-07-28T05:04:39;8.63;;;6.18;;
12958;SDS011;6544;51.666;6.634;2023-07-28T05:07:06;7.80;;;6.32;;
12958;SDS011;6544;51.666;6.634;2023-07-28T05:09:33;9.20;;;6.93;;
12958;SDS011;6544;51.666;6.634;2023-07-28T05:12:02;8.88;;;6.72;;
12958;SDS011;6544;51.666;6.634;2023-07-28T05:14:29;9.20;;;6.60;;
12958;SDS011;6544;51.666;6.634;2023-07-28T05:16:56;8.55;;;6.05;;
12958;SDS011;6544;51.666;6.634;2023-07-28T05:19:23;8.15;;;6.30;;
12958;SDS011;6544;51.666;6.634;2023-07-28T05:21:50;8.88;;;6.68;;
12958;SDS011;6544;51.666;6.634;2023-07-28T05:24:17;10.15;;;8.85;;
12958;SDS011;6544;51.666;6.634;2023-07-28T05:26:44;13.73;;;8.00;;
12958;SDS011;6544;51.666;6.634;2023-07-28T05:29:12;11.93;;;7.43;;
12958;SDS011;6544;51.666;6.634;2023-07-28T05:31:39;11.73;;;7.97;;
12958;SDS011;6544;51.666;6.634;2023-07-28T05:34:06;11.05;;;7.57;;
12958;SDS011;6544;51.666;6.634;2023-07-28T05:36:33;10.48;;;8.23;;
12958;SDS011;6544;51.666;6.634;2023-07-28T05:39:00;8.93;;;7.65;;
12958;SDS011;6544;51.666;6.634;2023-07-28T05:41:26;12.85;;;7.82;;
12958;SDS011;6544;51.666;6.634;2023-07-28T05:43:54;16.77;;;8.15;;
12958;SDS011;6544;51.666;6.634;2023-07-28T05:46:22;9.27;;;7.63;;
12958;SDS011;6544;51.666;6.634;2023-07-28T05:48:49;11.60;;;8.35;;
12958;SDS011;6544;51.666;6.634;2023-07-28T05:51:16;13.93;;;8.75;;
12958;SDS011;6544;51.666;6.634;2023-07-28T05:53:43;12.23;;;8.50;;
12958;SDS011;6544;51.666;6.634;2023-07-28T05:56:10;12.52;;;8.52;;
12958;SDS011;6544;51.666;6.634;2023-07-28T05:58:37;11.00;;;7.80;;
12958;SDS011;6544;51.666;6.634;2023-07-28T06:01:03;14.27;;;9.15;;
12958;SDS011;6544;51.666;6.634;2023-07-28T06:03:32;14.07;;;8.68;;
12958;SDS011;6544;51.666;6.634;2023-07-28T06:05:59;13.05;;;8.90;;
12958;SDS011;6544;51.666;6.634;2023-07-28T06:08:25;11.18;;;8.40;;
12958;SDS011;6544;51.666;6.634;2023-07-28T06:10:52;11.98;;;8.48;;
12958;SDS011;6544;51.666;6.634;2023-07-28T06:13:19;13.23;;;9.02;;
12958;SDS011;6544;51.666;6.634;2023-07-28T06:15:46;15.32;;;9.25;;
12958;SDS011;6544;51.666;6.634;2023-07-28T06:18:13;14.35;;;9.25;;
12958;SDS011;6544;51.666;6.634;2023-07-28T06:20:43;15.38;;;9.55;;
12958;SDS011;6544;51.666;6.634;2023-07-28T06:23:10;17.48;;;10.20;;
12958;SDS011;6544;51.666;6.634;2023-07-28T06:25:37;15.20;;;10.57;;
12958;SDS011;6544;51.666;6.634;2023-07-28T06:28:08;12.48;;;10.00;;
12958;SDS011;6544;51.666;6.634;2023-07-28T06:30:35;15.90;;;10.63;;
12958;SDS011;6544;51.666;6.634;2023-07-28T06:33:02;14.07;;;10.40;;
12958;SDS011;6544;51.666;6.634;2023-07-28T06:35:29;18.23;;;11.07;;
12958;SDS011;6544;51.666;6.634;2023-07-28T06:37:58;14.18;;;10.68;;
12958;SDS011;6544;51.666;6.634;2023-07-28T06:40:25;18.98;;;11.15;;
12958;SDS011;6544;51.666;6.634;2023-07-28T06:42:52;15.50;;;11.73;;
12958;SDS011;6544;51.666;6.634;2023-07-28T06:45:19;16.48;;;11.60;;
12958;SDS011;6544;51.666;6.634;2023-07-28T06:47:46;18.90;;;12.32;;
12958;SDS011;6544;51.666;6.634;2023-07-28T06:50:14;14.30;;;10.85;;
12958;SDS011;6544;51.666;6.634;2023-07-28T06:52:41;15.85;;;11.75;;
12958;SDS011;6544;51.666;6.634;2023-07-28T06:55:09;16.48;;;11.82;;
12958;SDS011;6544;51.666;6.634;2023-07-28T06:57:36;16.10;;;11.32;;
12958;SDS011;6544;51.666;6.634;2023-07-28T07:00:03;15.63;;;10.57;;
12958;SDS011;6544;51.666;6.634;2023-07-28T07:02:34;14.95;;;10.98;;
12958;SDS011;6544;51.666;6.634;2023-07-28T07:05:01;14.82;;;10.27;;
12958;SDS011;6544;51.666;6.634;2023-07-28T07:07:28;15.13;;;11.00;;
12958;SDS011;6544;51.666;6.634;2023-07-28T07:09:55;14.98;;;11.25;;
12958;SDS011;6544;51.666;6.634;2023-07-28T07:12:23;19.17;;;12.77;;
12958;SDS011;6544;51.666;6.634;2023-07-28T07:14:50;15.95;;;12.18;;
12958;SDS011;6544;51.666;6.634;2023-07-28T07:17:17;15.10;;;11.98;;
12958;SDS011;6544;51.666;6.634;2023-07-28T07:19:44;16.95;;;12.13;;
12958;SDS011;6544;51.666;6.634;2023-07-28T07:22:11;16.52;;;12.50;;
12958;SDS011;6544;51.666;6.634;2023-07-28T07:24:40;17.10;;;13.07;;
12958;SDS011;6544;51.666;6.634;2023-07-28T07:27:07;18.23;;;13.02;;
12958;SDS011;6544;51.666;6.634;2023-07-28T07:29:37;16.15;;;12.77;;
12958;SDS011;6544;51.666;6.634;2023-07-28T07:32:04;17.27;;;12.73;;
12958;SDS011;6544;51.666;6.634;2023-07-28T07:34:32;16.35;;;12.18;;
12958;SDS011;6544;51.666;6.634;2023-07-28T07:37:02;15.20;;;12.70;;
12958;SDS011;6544;51.666;6.634;2023-07-28T07:39:29;18.77;;;13.27;;
12958;SDS011;6544;51.666;6.634;2023-07-28T07:41:56;17.48;;;13.65;;
12958;SDS011;6544;51.666;6.634;2023-07-28T07:44:23;18.98;;;13.48;;
12958;SDS011;6544;51.666;6.634;2023-07-28T07:46:51;19.25;;;14.18;;
12958;SDS011;6544;51.666;6.634;2023-07-28T07:49:18;20.30;;;14.63;;
12958;SDS011;6544;51.666;6.634;2023-07-28T07:51:45;18.13;;;14.45;;
12958;SDS011;6544;51.666;6.634;2023-07-28T07:54:14;19.48;;;13.60;;
12958;SDS011;6544;51.666;6.634;2023-07-28T07:56:43;20.85;;;13.90;;
12958;SDS011;6544;51.666;6.634;2023-07-28T07:59:12;20.13;;;14.52;;
12958;SDS011;6544;51.666;6.634;2023-07-28T08:01:42;19.52;;;15.38;;
12958;SDS011;6544;51.666;6.634;2023-07-28T08:04:11;18.58;;;14.77;;
12958;SDS011;6544;51.666;6.634;2023-07-28T08:06:37;21.33;;;16.02;;
12958;SDS011;6544;51.666;6.634;2023-07-28T08:09:05;20.80;;;15.70;;
12958;SDS011;6544;51.666;6.634;2023-07-28T08:11:32;21.52;;;16.65;;
12958;SDS011;6544;51.666;6.634;2023-07-28T08:14:00;22.25;;;16.70;;
12958;SDS011;6544;51.666;6.634;2023-07-28T08:16:27;21.70;;;16.73;;
12958;SDS011;6544;51.666;6.634;2023-07-28T08:18:54;22.95;;;16.73;;
12958;SDS011;6544;51.666;6.634;2023-07-28T08:21:22;22.52;;;17.20;;
12958;SDS011;6544;51.666;6.634;2023-07-28T08:23:49;21.65;;;17.20;;
12958;SDS011;6544;51.666;6.634;2023-07-28T08:26:18;22.70;;;17.30;;
12958;SDS011;6544;51.666;6.634;2023-07-28T08:28:48;26.42;;;17.75;;
12958;SDS011;6544;51.666;6.634;2023-07-28T08:31:15;22.75;;;16.27;;
12958;SDS011;6544;51.666;6.634;2023-07-28T08:33:42;22.95;;;17.02;;
12958;SDS011;6544;51.666;6.634;2023-07-28T08:36:12;23.00;;;16.30;;
12958;SDS011;6544;51.666;6.634;2023-07-28T08:38:40;25.25;;;16.23;;
12958;SDS011;6544;51.666;6.634;2023-07-28T08:41:07;21.50;;;15.55;;
12958;SDS011;6544;51.666;6.634;2023-07-28T08:43:34;19.08;;;14.63;;
12958;SDS011;6544;51.666;6.634;2023-07-28T08:46:01;20.08;;;14.82;;
12958;SDS011;6544;51.666;6.634;2023-07-28T08:48:29;20.02;;;14.85;;
12958;SDS011;6544;51.666;6.634;2023-07-28T08:50:56;20.48;;;14.20;;
12958;SDS011;6544;51.666;6.634;2023-07-28T08:53:23;21.38;;;15.30;;
12958;SDS011;6544;51.666;6.634;2023-07-28T08:55:52;20.20;;;14.32;;
12958;SDS011;6544;51.666;6.634;2023-07-28T08:58:20;19.23;;;14.27;;
12958;SDS011;6544;51.666;6.634;2023-07-28T09:00:49;18.88;;;13.63;;
12958;SDS011;6544;51.666;6.634;2023-07-28T09:03:17;17.95;;;13.27;;
12958;SDS011;6544;51.666;6.634;2023-07-28T09:05:46;15.88;;;12.40;;
12958;SDS011;6544;51.666;6.634;2023-07-28T09:08:13;13.82;;;10.93;;
12958;SDS011;6544;51.666;6.634;2023-07-28T09:10:41;13.10;;;10.63;;
12958;SDS011;6544;51.666;6.634;2023-07-28T09:13:10;12.70;;;10.20;;
12958;SDS011;6544;51.666;6.634;2023-07-28T09:15:38;13.43;;;9.65;;
12958;SDS011;6544;51.666;6.634;2023-07-28T09:18:07;13.10;;;8.63;;
12958;SDS011;6544;51.666;6.634;2023-07-28T09:20:39;13.75;;;8.57;;
12958;SDS011;6544;51.666;6.634;2023-07-28T09:23:07;8.90;;;7.80;;
12958;SDS011;6544;51.666;6.634;2023-07-28T09:25:35;9.07;;;7.05;;
12958;SDS011;6544;51.666;6.634;2023-07-28T09:28:03;8.30;;;6.60;;
12958;SDS011;6544;51.666;6.634;2023-07-28T09:30:44;9.75;;;6.00;;
12958;SDS011;6544;51.666;6.634;2023-07-28T09:33:12;7.15;;;5.90;;
12958;SDS011;6544;51.666;6.634;2023-07-28T09:35:49;9.80;;;6.20;;
12958;SDS011;6544;51.666;6.634;2023-07-28T09:38:16;6.75;;;5.35;;
12958;SDS011;6544;51.666;6.634;2023-07-28T09:40:45;5.55;;;5.05;;
12958;SDS011;6544;51.666;6.634;2023-07-28T09:43:13;6.35;;;5.07;;
12958;SDS011;6544;51.666;6.634;2023-07-28T09:45:40;6.28;;;4.50;;
12958;SDS011;6544;51.666;6.634;2023-07-28T09:48:11;6.70;;;5.15;;
12958;SDS011;6544;51.666;6.634;2023-07-28T09:50:40;6.60;;;5.80;;
12958;SDS011;6544;51.666;6.634;2023-07-28T09:53:09;5.97;;;5.18;;
12958;SDS011;6544;51.666;6.634;2023-07-28T09:55:38;7.93;;;5.40;;
12958;SDS011;6544;51.666;6.634;2023-07-28T09:58:08;6.20;;;5.40;;
12958;SDS011;6544;51.666;6.634;2023-07-28T10:00:37;6.40;;;5.20;;
12958;SDS011;6544;51.666;6.634;2023-07-28T10:03:05;7.88;;;5.18;;
12958;SDS011;6544;51.666;6.634;2023-07-28T10:05:34;6.45;;;5.30;;
12958;SDS011;6544;51.666;6.634;2023-07-28T10:08:01;5.75;;;5.05;;
12958;SDS011;6544;51.666;6.634;2023-07-28T10:10:32;5.10;;;4.55;;
12958;SDS011;6544;51.666;6.634;2023-07-28T10:12:59;5.38;;;4.88;;
12958;SDS011;6544;51.666;6.634;2023-07-28T10:15:28;5.10;;;4.60;;
12958;SDS011;6544;51.666;6.634;2023-07-28T10:17:58;5.32;;;4.82;;
12958;SDS011;6544;51.666;6.634;2023-07-28T10:20:28;5.03;;;4.53;;
12958;SDS011;6544;51.666;6.634;2023-07-28T10:23:01;4.93;;;4.15;;
12958;SDS011;6544;51.666;6.634;2023-07-28T10:25:33;4.00;;;3.70;;
12958;SDS011;6544;51.666;6.634;2023-07-28T10:28:02;5.00;;;3.90;;
12958;SDS011;6544;51.666;6.634;2023-07-28T10:30:34;8.93;;;4.38;;
12958;SDS011;6544;51.666;6.634;2023-07-28T10:33:03;5.68;;;4.07;;
12958;SDS011;6544;51.666;6.634;2023-07-28T10:35:32;4.20;;;3.80;;
12958;SDS011;6544;51.666;6.634;2023-07-28T10:41:11;6.93;;;4.05;;
12958;SDS011;6544;51.666;6.634;2023-07-28T10:43:40;5.57;;;4.47;;
12958;SDS011;6544;51.666;6.634;2023-07-28T10:46:08;4.60;;;4.20;;
12958;SDS011;6544;51.666;6.634;2023-07-28T10:48:36;4.40;;;4.00;;
12958;SDS011;6544;51.666;6.634;2023-07-28T10:51:08;5.60;;;4.32;;
12958;SDS011;6544;51.666;6.634;2023-07-28T10:53:36;4.55;;;4.13;;
12958;SDS011;6544;51.666;6.634;2023-07-28T10:56:04;4.38;;;3.90;;
12958;SDS011;6544;51.666;6.634;2023-07-28T10:58:33;4.53;;;4.10;;
12958;SDS011;6544;51.666;6.634;2023-07-28T11:01:02;4.25;;;3.85;;
12958;SDS011;6544;51.666;6.634;2023-07-28T11:03:29;4.40;;;4.00;;
12958;SDS011;6544;51.666;6.634;2023-07-28T11:05:57;5.35;;;4.82;;
12958;SDS011;6544;51.666;6.634;2023-07-28T11:08:25;5.38;;;4.88;;
12958;SDS011;6544;51.666;6.634;2023-07-28T11:10:53;4.65;;;4.25;;
12958;SDS011;6544;51.666;6.634;2023-07-28T11:13:20;4.60;;;4.20;;
12958;SDS011;6544;51.666;6.634;2023-07-28T11:15:50;4.78;;;4.00;;
12958;SDS011;6544;51.666;6.634;2023-07-28T11:18:17;6.03;;;3.83;;
12958;SDS011;6544;51.666;6.634;2023-07-28T11:20:44;4.38;;;3.92;;
12958;SDS011;6544;51.666;6.634;2023-07-28T11:23:13;5.65;;;3.90;;
12958;SDS011;6544;51.666;6.634;2023-07-28T11:25:42;5.55;;;4.25;;
12958;SDS011;6544;51.666;6.634;2023-07-28T11:28:12;5.18;;;3.90;;
12958;SDS011;6544;51.666;6.634;2023-07-28T11:30:39;4.50;;;4.10;;
12958;SDS011;6544;51.666;6.634;2023-07-28T11:33:08;4.18;;;3.50;;
12958;SDS011;6544;51.666;6.634;2023-07-28T11:35:37;4.55;;;2.90;;
12958;SDS011;6544;51.666;6.634;2023-07-28T11:38:05;4.35;;;2.95;;
12958;SDS011;6544;51.666;6.634;2023-07-28T11:40:33;2.75;;;2.55;;
12958;SDS011;6544;51.666;6.634;2023-07-28T11:43:04;5.97;;;2.90;;
12958;SDS011;6544;51.666;6.634;2023-07-28T11:45:32;3.17;;;2.78;;
12958;SDS011;6544;51.666;6.634;2023-07-28T11:48:00;4.32;;;2.90;;
12958;SDS011;6544;51.666;6.634;2023-07-28T11:50:30;3.40;;;3.10;;
12958;SDS011;6544;51.666;6.634;2023-07-28T11:53:02;4.15;;;2.80;;
12958;SDS011;6544;51.666;6.634;2023-07-28T11:55:30;3.33;;;2.97;;
12958;SDS011;6544;51.666;6.634;2023-07-28T11:57:57;3.47;;;2.80;;
12958;SDS011;6544;51.666;6.634;2023-07-28T12:00:31;2.95;;;2.70;;
12958;SDS011;6544;51.666;6.634;2023-07-28T12:03:00;4.45;;;2.80;;
12958;SDS011;6544;51.666;6.634;2023-07-28T12:05:29;3.28;;;2.97;;
12958;SDS011;6544;51.666;6.634;2023-07-28T12:07:57;3.00;;;2.70;;
12958;SDS011;6544;51.666;6.634;2023-07-28T12:10:24;3.17;;;2.50;;
12958;SDS011;6544;51.666;6.634;2023-07-28T12:12:51;2.40;;;2.20;;
12958;SDS011;6544;51.666;6.634;2023-07-28T12:15:18;2.30;;;2.00;;
12958;SDS011;6544;51.666;6.634;2023-07-28T12:18:06;2.08;;;1.90;;
12958;SDS011;6544;51.666;6.634;2023-07-28T12:20:35;2.42;;;1.83;;
12958;SDS011;6544;51.666;6.634;2023-07-28T12:23:03;2.75;;;1.90;;
12958;SDS011;6544;51.666;6.634;2023-07-28T12:25:30;2.05;;;1.90;;
12958;SDS011;6544;51.666;6.634;2023-07-28T12:27:57;2.67;;;2.00;;
12958;SDS011;6544;51.666;6.634;2023-07-28T12:30:25;2.40;;;2.20;;
12958;SDS011;6544;51.666;6.634;2023-07-28T12:32:52;2.50;;;2.30;;
12958;SDS011;6544;51.666;6.634;2023-07-28T12:35:20;4.18;;;2.10;;
12958;SDS011;6544;51.666;6.634;2023-07-28T12:37:48;3.88;;;2.00;;
12958;SDS011;6544;51.666;6.634;2023-07-28T12:40:16;2.95;;;1.60;;
12958;SDS011;6544;51.666;6.634;2023-07-28T12:42:44;3.22;;;1.75;;
12958;SDS011;6544;51.666;6.634;2023-07-28T12:45:11;1.73;;;1.63;;
12958;SDS011;6544;51.666;6.634;2023-07-28T12:47:38;1.80;;;1.70;;
12958;SDS011;6544;51.666;6.634;2023-07-28T12:50:05;2.92;;;1.67;;
12958;SDS011;6544;51.666;6.634;2023-07-28T12:52:34;4.22;;;1.98;;
12958;SDS011;6544;51.666;6.634;2023-07-28T12:55:01;1.80;;;1.70;;
12958;SDS011;6544;51.666;6.634;2023-07-28T12:57:28;1.75;;;1.63;;
12958;SDS011;6544;51.666;6.634;2023-07-28T12:59:55;2.35;;;1.70;;
12958;SDS011;6544;51.666;6.634;2023-07-28T13:02:22;1.50;;;1.33;;
12958;SDS011;6544;51.666;6.634;2023-07-28T13:04:48;1.83;;;1.40;;
12958;SDS011;6544;51.666;6.634;2023-07-28T13:07:15;2.33;;;1.30;;
12958;SDS011;6544;51.666;6.634;2023-07-28T13:09:44;1.70;;;1.40;;
12958;SDS011;6544;51.666;6.634;2023-07-28T13:12:11;5.13;;;1.50;;
12958;SDS011;6544;51.666;6.634;2023-07-28T13:14:38;1.35;;;1.25;;
12958;SDS011;6544;51.666;6.634;2023-07-28T13:17:05;1.95;;;1.40;;
12958;SDS011;6544;51.666;6.634;2023-07-28T13:19:32;1.50;;;1.30;;
12958;SDS011;6544;51.666;6.634;2023-07-28T13:21:59;1.85;;;1.20;;
12958;SDS011;6544;51.666;6.634;2023-07-28T13:24:26;2.40;;;1.50;;
12958;SDS011;6544;51.666;6.634;2023-07-28T13:26:55;1.60;;;1.40;;
12958;SDS011;6544;51.666;6.634;2023-07-28T13:29:22;2.33;;;1.20;;
12958;SDS011;6544;51.666;6.634;2023-07-28T13:31:49;3.08;;;1.10;;
12958;SDS011;6544;51.666;6.634;2023-07-28T13:34:16;1.42;;;1.33;;
12958;SDS011;6544;51.666;6.634;2023-07-28T13:36:42;1.73;;;1.30;;
12958;SDS011;6544;51.666;6.634;2023-07-28T13:39:09;1.55;;;1.30;;
12958;SDS011;6544;51.666;6.634;2023-07-28T13:41:37;1.20;;;1.10;;
12958;SDS011;6544;51.666;6.634;2023-07-28T13:44:05;1.80;;;1.17;;
12958;SDS011;6544;51.666;6.634;2023-07-28T13:46:32;1.30;;;1.20;;
12958;SDS011;6544;51.666;6.634;2023-07-28T13:48:59;2.15;;;1.30;;
12958;SDS011;6544;51.666;6.634;2023-07-28T13:51:26;1.30;;;1.20;;
12958;SDS011;6544;51.666;6.634;2023-07-28T13:53:53;1.50;;;1.10;;
12958;SDS011;6544;51.666;6.634;2023-07-28T13:56:20;1.70;;;1.30;;
12958;SDS011;6544;51.666;6.634;2023-07-28T13:58:47;2.70;;;1.25;;
12958;SDS011;6544;51.666;6.634;2023-07-28T14:01:15;2.33;;;1.35;;
12958;SDS011;6544;51.666;6.634;2023-07-28T14:03:42;3.10;;;1.20;;
12958;SDS011;6544;51.666;6.634;2023-07-28T14:06:09;1.75;;;1.35;;
12958;SDS011;6544;51.666;6.634;2023-07-28T14:08:36;1.38;;;1.20;;
12958;SDS011;6544;51.666;6.634;2023-07-28T14:11:03;1.80;;;1.40;;
12958;SDS011;6544;51.666;6.634;2023-07-28T14:13:29;1.92;;;1.33;;
12958;SDS011;6544;51.666;6.634;2023-07-28T14:15:58;1.60;;;1.35;;
12958;SDS011;6544;51.666;6.634;2023-07-28T14:18:26;1.85;;;1.50;;
12958;SDS011;6544;51.666;6.634;2023-07-28T14:20:53;1.65;;;1.40;;
12958;SDS011;6544;51.666;6.634;2023-07-28T14:23:21;1.55;;;1.40;;
12958;SDS011;6544;51.666;6.634;2023-07-28T14:25:49;1.60;;;1.50;;
12958;SDS011;6544;51.666;6.634;2023-07-28T14:28:16;2.08;;;1.40;;
12958;SDS011;6544;51.666;6.634;2023-07-28T14:30:43;1.60;;;1.40;;
12958;SDS011;6544;51.666;6.634;2023-07-28T14:33:11;1.88;;;1.60;;
12958;SDS011;6544;51.666;6.634;2023-07-28T14:35:40;1.92;;;1.60;;
12958;SDS011;6544;51.666;6.634;2023-07-28T14:38:07;1.65;;;1.55;;
12958;SDS011;6544;51.666;6.634;2023-07-28T14:40:35;1.85;;;1.65;;
12958;SDS011;6544;51.666;6.634;2023-07-28T14:43:02;1.50;;;1.40;;
12958;SDS011;6544;51.666;6.634;2023-07-28T14:45:29;2.50;;;1.60;;
12958;SDS011;6544;51.666;6.634;2023-07-28T14:47:56;2.85;;;1.50;;
12958;SDS011;6544;51.666;6.634;2023-07-28T14:50:23;2.97;;;1.65;;
12958;SDS011;6544;51.666;6.634;2023-07-28T14:52:51;2.78;;;1.48;;
12958;SDS011;6544;51.666;6.634;2023-07-28T14:55:18;2.60;;;1.42;;
12958;SDS011;6544;51.666;6.634;2023-07-28T14:57:45;8.55;;;1.75;;
12958;SDS011;6544;51.666;6.634;2023-07-28T15:00:12;2.05;;;1.50;;
12958;SDS011;6544;51.666;6.634;2023-07-28T15:02:39;1.83;;;1.40;;